Time;durP1;ratioP1;P1;durP2;ratioP2;P2;SDS_P1;SDS_P2;PMS_P1;PMS_P2;Temp;Humidity;BMP_temperature;BMP_pressure;BME280_temperature;BME280_humidity;BME280_pressure;Samples;Min_cycle;Max_cycle;Signal;HPM_P1;HPM_P2
2022/01/22 00:01:46;;;;;;;3.35;2.88;;;4.30;99.90;;;;;;5067880;28;20291;-68
2022/01/22 00:04:13;;;;;;;3.83;2.40;;;4.20;99.90;;;;;;5070897;28;20285;-68
2022/01/22 00:06:39;;;;;;;3.90;3.60;;;4.20;99.90;;;;;;5071631;28;20209;-68
2022/01/22 00:09:07;;;;;;;5.88;4.53;;;4.20;99.90;;;;;;5070521;28;20690;-68
2022/01/22 00:11:38;;;;;;;2.72;2.53;;;4.20;99.90;;;;;;5065725;28;20359;-68
2022/01/22 00:14:23;;;;;;;3.40;3.10;;;4.20;99.90;;;;;;5061827;28;20218;-67
2022/01/22 00:16:50;;;;;;;8.63;4.55;;;4.20;99.90;;;;;;5073154;28;20303;-68
2022/01/22 00:19:17;;;;;;;5.85;3.70;;;4.20;99.90;;;;;;5070499;28;20681;-68
2022/01/22 00:21:44;;;;;;;5.35;4.22;;;4.20;99.90;;;;;;5072287;28;20227;-67
2022/01/22 00:24:11;;;;;;;3.13;2.83;;;4.30;99.90;;;;;;5052429;28;20675;-69
2022/01/22 00:26:38;;;;;;;6.40;4.47;;;4.30;99.90;;;;;;5066380;28;20639;-68
2022/01/22 00:29:06;;;;;;;5.07;4.57;;;4.30;99.90;;;;;;5070055;28;20255;-66
2022/01/22 00:31:33;;;;;;;5.50;3.83;;;4.30;99.90;;;;;;5060149;28;20205;-66
2022/01/22 00:34:00;;;;;;;3.38;3.03;;;4.30;99.90;;;;;;5065135;28;20226;-66
2022/01/22 00:36:26;;;;;;;4.65;4.25;;;4.30;99.90;;;;;;5070561;28;20243;-67
2022/01/22 00:38:53;;;;;;;10.13;5.35;;;4.20;99.90;;;;;;5059154;28;20655;-67
2022/01/22 00:41:21;;;;;;;4.10;3.72;;;4.20;99.90;;;;;;5066369;28;20636;-69
2022/01/22 00:43:48;;;;;;;7.53;4.05;;;4.10;99.90;;;;;;5059966;28;20321;-66
2022/01/22 00:46:16;;;;;;;4.88;4.05;;;4.10;99.90;;;;;;5068067;28;20197;-66
2022/01/22 00:48:43;;;;;;;5.97;5.38;;;4.10;99.90;;;;;;5066215;28;20205;-67
2022/01/22 00:51:09;;;;;;;7.90;5.95;;;4.10;99.90;;;;;;5071844;28;20201;-66
2022/01/22 00:53:36;;;;;;;5.30;3.97;;;4.00;99.90;;;;;;5058381;28;20293;-66
2022/01/22 00:56:03;;;;;;;4.63;3.72;;;4.00;99.90;;;;;;5069086;28;20589;-66
2022/01/22 00:58:30;;;;;;;5.35;4.95;;;4.00;99.90;;;;;;5066477;28;20613;-67
2022/01/22 01:00:56;;;;;;;5.22;3.67;;;3.90;99.90;;;;;;5056778;28;20210;-66
2022/01/22 01:03:25;;;;;;;6.03;4.97;;;3.90;99.90;;;;;;5066198;28;20574;-68
2022/01/22 01:05:51;;;;;;;6.10;4.35;;;3.90;99.90;;;;;;5066392;28;20206;-67
2022/01/22 01:08:18;;;;;;;4.90;4.35;;;4.00;99.90;;;;;;5053806;28;20231;-66
2022/01/22 01:10:45;;;;;;;5.35;4.85;;;4.00;99.90;;;;;;5057756;28;20694;-66
2022/01/22 01:13:14;;;;;;;14.68;5.50;;;4.00;99.90;;;;;;5069848;28;20271;-67
2022/01/22 01:15:53;;;;;;;10.18;5.43;;;4.00;99.90;;;;;;5059250;28;21003;-68
2022/01/22 01:32:20;;;;;;;7.03;4.47;;;4.10;99.90;;;;;;5089857;28;20219;-72
2022/01/22 01:34:49;;;;;;;10.07;6.72;;;4.10;99.90;;;;;;5080475;28;20691;-67
2022/01/22 01:37:19;;;;;;;5.78;5.03;;;4.10;99.90;;;;;;5073776;28;20201;-67
2022/01/22 01:39:49;;;;;;;6.28;5.28;;;4.10;99.90;;;;;;5080218;28;20327;-67
2022/01/22 01:42:20;;;;;;;7.57;6.25;;;4.10;99.90;;;;;;5070589;28;20295;-67
2022/01/22 01:44:47;;;;;;;9.15;5.80;;;4.10;99.90;;;;;;5065203;28;20369;-67
2022/01/22 01:47:16;;;;;;;12.73;5.45;;;4.10;99.90;;;;;;5065617;28;20650;-68
2022/01/22 01:49:43;;;;;;;8.23;5.45;;;4.10;99.90;;;;;;5065104;28;20608;-67
2022/01/22 01:52:15;;;;;;;10.90;6.05;;;4.10;99.90;;;;;;5068023;28;20228;-67
2022/01/22 01:54:59;;;;;;;12.50;7.38;;;4.10;99.90;;;;;;5068322;28;20294;-67
2022/01/22 02:00:18;;;;;;;6.45;5.15;;;4.10;99.90;;;;;;5068558;28;20228;-67
2022/01/22 02:02:46;;;;;;;7.10;6.57;;;4.10;99.90;;;;;;5075269;28;20205;-66
2022/01/22 02:05:13;;;;;;;8.27;6.65;;;4.10;99.90;;;;;;5062885;28;20264;-65
2022/01/22 02:07:42;;;;;;;7.70;6.03;;;4.10;99.90;;;;;;5067788;28;20221;-66
2022/01/22 02:10:17;;;;;;;5.03;4.50;;;4.00;99.90;;;;;;5072918;28;20266;-66
2022/01/22 02:13:37;;;;;;;6.40;5.68;;;4.10;99.90;;;;;;5063446;28;20689;-69
2022/01/22 02:23:52;;;;;;;8.40;5.70;;;4.10;99.90;;;;;;5056709;28;20284;-66
2022/01/22 02:26:19;;;;;;;11.63;6.60;;;4.10;99.90;;;;;;5060933;28;20583;-66
2022/01/22 02:28:47;;;;;;;7.30;6.57;;;4.10;99.90;;;;;;5062048;28;20198;-66
2022/01/22 02:31:21;;;;;;;8.25;6.10;;;4.10;99.90;;;;;;5055329;28;20699;-66
2022/01/22 02:33:53;;;;;;;8.50;7.50;;;4.20;99.90;;;;;;5056704;28;20420;-66
2022/01/22 02:36:26;;;;;;;12.02;7.75;;;4.20;99.90;;;;;;5058621;28;20201;-66
2022/01/22 02:38:59;;;;;;;7.43;6.47;;;4.20;99.90;;;;;;5061632;28;20574;-66
2022/01/22 02:41:26;;;;;;;7.57;6.20;;;4.20;99.90;;;;;;5060374;28;20291;-66
2022/01/22 02:43:54;;;;;;;8.70;7.80;;;4.20;99.90;;;;;;5055840;28;20222;-67
2022/01/22 02:46:24;;;;;;;8.85;8.05;;;4.20;99.90;;;;;;5065847;28;20288;-67
2022/01/22 02:48:51;;;;;;;9.07;7.38;;;4.20;99.90;;;;;;5067262;28;20284;-66
2022/01/22 02:51:18;;;;;;;13.05;6.75;;;4.20;99.90;;;;;;5056716;28;20255;-67
2022/01/22 02:53:49;;;;;;;7.80;7.00;;;4.20;99.90;;;;;;5065495;28;20225;-67
2022/01/22 02:56:15;;;;;;;10.02;6.50;;;4.20;99.90;;;;;;5062987;28;20737;-67
2022/01/22 02:58:42;;;;;;;8.70;7.07;;;4.20;99.90;;;;;;5062906;28;20648;-67
2022/01/22 03:01:09;;;;;;;9.63;6.35;;;4.20;99.90;;;;;;5049515;28;20205;-66
2022/01/22 03:03:38;;;;;;;9.55;7.35;;;4.20;99.90;;;;;;5063256;28;20216;-66
2022/01/22 03:06:05;;;;;;;7.80;6.50;;;4.20;99.90;;;;;;5056533;28;20217;-66
2022/01/22 03:08:32;;;;;;;7.13;6.60;;;4.20;99.90;;;;;;5077004;28;20213;-66
2022/01/22 03:11:05;;;;;;;7.97;7.18;;;4.20;99.90;;;;;;5067049;28;20233;-68
2022/01/22 03:16:47;;;;;;;8.95;7.05;;;4.10;99.90;;;;;;5064823;28;20278;-67
2022/01/22 03:19:28;;;;;;;7.10;6.45;;;4.10;99.90;;;;;;5056290;28;20267;-66
2022/01/22 03:22:01;;;;;;;10.13;8.20;;;4.10;99.90;;;;;;5061981;28;20216;-66
2022/01/22 03:27:23;;;;;;;7.55;6.85;;;4.10;99.90;;;;;;5054203;28;20217;-67
2022/01/22 03:29:51;;;;;;;8.05;6.80;;;4.10;99.90;;;;;;5067232;28;20279;-69
2022/01/22 03:32:18;;;;;;;9.70;8.52;;;4.10;99.90;;;;;;5062767;28;20574;-67
2022/01/22 03:34:55;;;;;;;7.15;6.53;;;4.10;99.90;;;;;;5067227;28;20224;-66
2022/01/22 03:37:23;;;;;;;12.00;8.55;;;4.10;99.90;;;;;;5055977;28;20279;-67
2022/01/22 03:39:49;;;;;;;9.07;7.55;;;4.10;99.90;;;;;;5065982;28;20303;-66
2022/01/22 03:42:17;;;;;;;10.20;9.20;;;4.10;99.90;;;;;;5059110;28;20259;-65
2022/01/22 03:44:44;;;;;;;10.02;7.72;;;4.10;99.90;;;;;;5065365;28;20233;-66
2022/01/22 03:47:11;;;;;;;11.40;7.93;;;4.10;99.90;;;;;;5064959;28;20202;-67
2022/01/22 03:49:38;;;;;;;7.57;6.35;;;4.10;99.90;;;;;;5066609;28;20201;-68
2022/01/22 03:52:05;;;;;;;10.93;8.07;;;4.10;99.90;;;;;;5058090;28;20209;-66
2022/01/22 03:54:32;;;;;;;7.53;6.38;;;4.10;99.90;;;;;;5065947;28;20225;-66
2022/01/22 03:56:58;;;;;;;10.30;8.75;;;4.10;99.90;;;;;;5063506;28;20212;-66
2022/01/22 03:59:29;;;;;;;10.57;8.35;;;4.10;99.90;;;;;;5065786;28;20217;-67
2022/01/22 04:02:33;;;;;;;8.18;7.47;;;4.10;99.90;;;;;;5066906;28;20208;-66
2022/01/22 04:05:01;;;;;;;9.23;7.43;;;4.10;99.90;;;;;;5066683;28;20233;-67
2022/01/22 04:10:10;;;;;;;9.90;6.95;;;4.10;99.90;;;;;;5053669;28;20209;-66
2022/01/22 04:12:46;;;;;;;9.25;8.18;;;4.10;99.90;;;;;;5065309;28;20223;-66
2022/01/22 04:15:17;;;;;;;11.48;8.57;;;4.10;99.90;;;;;;5065384;28;20221;-68
2022/01/22 04:26:05;;;;;;;16.10;9.20;;;4.20;99.90;;;;;;5053669;28;20607;-66
2022/01/22 04:28:31;;;;;;;17.23;8.38;;;4.20;99.90;;;;;;5055059;28;20205;-70
2022/01/22 04:30:59;;;;;;;10.23;9.05;;;4.30;99.90;;;;;;5054338;28;20275;-67
2022/01/22 04:33:26;;;;;;;15.93;8.77;;;4.30;99.90;;;;;;5065414;28;20449;-66
2022/01/22 04:35:53;;;;;;;8.25;7.30;;;4.30;99.90;;;;;;5063438;28;20205;-67
2022/01/22 04:38:19;;;;;;;8.95;7.30;;;4.20;99.90;;;;;;5063199;28;20205;-67
2022/01/22 04:40:46;;;;;;;12.77;7.45;;;4.30;99.90;;;;;;5062050;28;20208;-67
2022/01/22 04:43:13;;;;;;;13.73;7.95;;;4.30;99.90;;;;;;5072373;28;20213;-67
2022/01/22 04:45:50;;;;;;;11.90;7.13;;;4.30;99.90;;;;;;5066052;28;20229;-69
2022/01/22 04:48:41;;;;;;;10.55;8.35;;;4.30;99.90;;;;;;5070968;28;20221;-67
2022/01/22 04:56:39;;;;;;;15.65;8.20;;;4.30;99.90;;;;;;5060748;28;20242;-65
2022/01/22 04:59:06;;;;;;;18.17;8.93;;;4.30;99.90;;;;;;5063534;28;20202;-67
2022/01/22 05:01:33;;;;;;;10.85;8.85;;;4.40;99.90;;;;;;5061460;28;20295;-67
2022/01/22 05:04:01;;;;;;;13.10;8.02;;;4.40;99.90;;;;;;5066276;28;20774;-66
2022/01/22 05:06:29;;;;;;;10.57;8.45;;;4.40;99.90;;;;;;5061778;28;20327;-66
2022/01/22 05:08:56;;;;;;;21.40;9.43;;;4.40;99.90;;;;;;5059911;28;20240;-66
2022/01/22 05:11:24;;;;;;;9.25;8.30;;;4.40;99.90;;;;;;5077906;28;20271;-67
2022/01/22 05:13:50;;;;;;;11.77;8.70;;;4.40;99.90;;;;;;5060366;28;20293;-67
2022/01/22 05:16:17;;;;;;;9.45;7.60;;;4.40;99.90;;;;;;5061638;28;20201;-67
2022/01/22 05:18:50;;;;;;;11.43;8.35;;;4.40;99.90;;;;;;5050615;28;20220;-66
2022/01/22 05:21:20;;;;;;;9.70;8.25;;;4.40;99.90;;;;;;5057583;28;20198;-67
2022/01/22 05:23:47;;;;;;;12.65;9.15;;;4.50;99.90;;;;;;5063167;28;20322;-67
2022/01/22 05:26:39;;;;;;;9.13;8.23;;;4.50;99.90;;;;;;5059172;28;20403;-67
2022/01/22 05:29:21;;;;;;;9.02;7.70;;;4.50;99.90;;;;;;5055239;28;20233;-70
2022/01/22 05:32:16;;;;;;;11.85;8.90;;;4.50;99.90;;;;;;5063219;28;20258;-67
2022/01/22 05:37:26;;;;;;;13.13;10.10;;;4.60;99.90;;;;;;5051451;28;20204;-67
2022/01/22 05:39:53;;;;;;;11.77;9.15;;;4.60;99.90;;;;;;5065181;28;20235;-67
2022/01/22 05:42:20;;;;;;;15.43;10.85;;;4.60;99.90;;;;;;5062565;28;20213;-66
2022/01/22 05:44:47;;;;;;;10.00;8.55;;;4.60;99.90;;;;;;5089630;22;20229;-67
2022/01/22 05:47:20;;;;;;;12.77;9.65;;;4.60;99.90;;;;;;5065226;28;20220;-69
2022/01/22 05:49:46;;;;;;;17.40;10.40;;;4.60;99.90;;;;;;5062421;28;20202;-68
2022/01/22 05:52:19;;;;;;;8.30;6.85;;;4.60;99.90;;;;;;5067183;28;20213;-68
2022/01/22 05:55:06;;;;;;;11.95;9.02;;;4.60;99.90;;;;;;5067634;28;20225;-67
2022/01/22 06:00:22;;;;;;;8.65;7.80;;;4.60;99.90;;;;;;5014527;28;20257;-67
2022/01/22 06:02:49;;;;;;;14.15;9.77;;;4.60;99.90;;;;;;5061060;28;20260;-66
2022/01/22 06:05:16;;;;;;;9.02;8.15;;;4.60;99.90;;;;;;5051280;28;20267;-68
2022/01/22 06:07:42;;;;;;;9.88;7.05;;;4.60;99.90;;;;;;5051611;28;20205;-68
2022/01/22 06:10:17;;;;;;;13.27;9.45;;;4.60;99.90;;;;;;5055220;28;20202;-68
2022/01/22 06:12:57;;;;;;;10.20;9.05;;;4.70;99.90;;;;;;5063907;28;20279;-69
2022/01/22 06:15:24;;;;;;;14.15;10.15;;;4.60;99.90;;;;;;5058488;28;20585;-67
2022/01/22 06:17:50;;;;;;;13.70;9.43;;;4.70;99.90;;;;;;5055794;28;20311;-68
2022/01/22 06:20:17;;;;;;;13.88;8.75;;;4.60;99.90;;;;;;5062362;28;20205;-66
2022/01/22 06:22:44;;;;;;;30.73;9.75;;;4.60;99.90;;;;;;5052879;28;20260;-67
2022/01/22 06:25:12;;;;;;;10.15;8.63;;;4.60;99.90;;;;;;5052879;28;20226;-69
2022/01/22 06:27:39;;;;;;;13.68;8.90;;;4.60;99.90;;;;;;5063628;28;20201;-67
2022/01/22 06:30:06;;;;;;;10.45;8.77;;;4.60;99.90;;;;;;5065233;28;20201;-68
2022/01/22 06:32:33;;;;;;;10.60;7.70;;;4.60;99.90;;;;;;5058639;28;20263;-69
2022/01/22 06:34:59;;;;;;;14.68;9.25;;;4.50;99.90;;;;;;5051347;28;20218;-68
2022/01/22 06:37:26;;;;;;;12.30;8.75;;;4.50;99.90;;;;;;5058097;28;20556;-68
2022/01/22 06:41:44;;;;;;;11.65;9.88;;;4.50;99.90;;;;;;5062710;28;20205;-68
2022/01/22 06:42:50;;;;;;;14.82;11.32;;;4.50;99.90;;;;;;5051264;28;20198;-67
2022/01/22 06:45:17;;;;;;;15.13;9.90;;;4.50;99.90;;;;;;5060791;28;20309;-69
2022/01/22 06:47:44;;;;;;;14.35;11.38;;;4.50;99.90;;;;;;5057226;28;20201;-68
2022/01/22 06:50:11;;;;;;;12.90;10.75;;;4.50;99.90;;;;;;5061612;28;20255;-69
2022/01/22 06:52:39;;;;;;;14.93;10.77;;;4.50;99.90;;;;;;5056716;28;20201;-69
2022/01/22 06:55:07;;;;;;;16.27;11.73;;;4.50;99.90;;;;;;5055526;28;20320;-69
2022/01/22 06:57:34;;;;;;;19.40;12.73;;;4.50;99.90;;;;;;5051033;28;20345;-68
2022/01/22 07:00:02;;;;;;;20.60;11.73;;;4.50;99.90;;;;;;5052272;28;20255;-67
2022/01/22 07:02:29;;;;;;;14.27;10.68;;;4.50;99.90;;;;;;5054021;28;20209;-68
2022/01/22 07:04:55;;;;;;;11.07;9.65;;;4.50;99.90;;;;;;5056452;28;20368;-68
2022/01/22 07:07:22;;;;;;;13.90;9.90;;;4.50;99.90;;;;;;5054686;28;20264;-68
2022/01/22 07:09:49;;;;;;;12.27;10.57;;;4.50;99.90;;;;;;5053625;28;20244;-68
2022/01/22 07:12:16;;;;;;;12.80;10.55;;;4.50;99.90;;;;;;5052428;28;20206;-67
2022/01/22 07:14:45;;;;;;;12.52;9.77;;;4.50;99.90;;;;;;5053141;28;20280;-69
2022/01/22 07:17:13;;;;;;;10.68;9.25;;;4.60;99.90;;;;;;5050789;28;20198;-69
2022/01/22 07:19:41;;;;;;;15.88;10.55;;;4.60;99.90;;;;;;5050422;28;20267;-69
2022/01/22 07:22:30;;;;;;;15.05;10.48;;;4.60;99.90;;;;;;5051262;28;20206;-67
2022/01/22 07:24:56;;;;;;;13.48;10.73;;;4.60;99.90;;;;;;5050180;28;20237;-69
2022/01/22 07:27:23;;;;;;;9.27;8.45;;;4.60;99.90;;;;;;5051063;28;20275;-67
2022/01/22 07:29:49;;;;;;;21.67;13.50;;;4.60;99.90;;;;;;5050098;28;20210;-76
2022/01/22 07:32:27;;;;;;;12.80;11.18;;;4.60;99.90;;;;;;5049436;28;20632;-70
2022/01/22 07:34:54;;;;;;;14.38;11.90;;;4.60;99.90;;;;;;5048756;28;20275;-69
2022/01/22 07:37:20;;;;;;;14.20;11.27;;;4.60;99.90;;;;;;5050259;28;20194;-68
2022/01/22 07:39:47;;;;;;;11.13;9.85;;;4.70;99.90;;;;;;5052945;28;20260;-67
2022/01/22 07:42:14;;;;;;;11.07;9.98;;;4.70;99.90;;;;;;5048084;28;20202;-67
2022/01/22 07:44:41;;;;;;;19.65;11.50;;;4.70;99.90;;;;;;5053220;28;20585;-66
2022/01/22 07:47:07;;;;;;;11.20;8.68;;;4.70;99.90;;;;;;5052528;28;20229;-68
2022/01/22 07:49:35;;;;;;;13.65;9.40;;;4.70;99.90;;;;;;5051036;28;20198;-67
2022/01/22 07:52:02;;;;;;;16.92;10.63;;;4.70;99.90;;;;;;5049538;28;20210;-68
2022/01/22 07:54:28;;;;;;;12.18;10.60;;;4.70;99.90;;;;;;5051175;28;20399;-69
2022/01/22 07:56:55;;;;;;;16.40;11.85;;;4.80;99.90;;;;;;5047745;28;20252;-68
2022/01/22 07:59:22;;;;;;;19.58;11.20;;;4.80;99.90;;;;;;5048186;28;20197;-69
2022/01/22 08:01:48;;;;;;;18.33;13.20;;;4.80;99.90;;;;;;5050183;28;20443;-69
2022/01/22 08:04:22;;;;;;;20.10;14.48;;;4.80;99.90;;;;;;5049486;28;20226;-67
2022/01/22 08:06:51;;;;;;;15.02;11.63;;;4.90;99.90;;;;;;5051162;28;20731;-68
2022/01/22 08:09:18;;;;;;;16.13;12.85;;;4.80;99.90;;;;;;5053250;28;20202;-69
2022/01/22 08:11:45;;;;;;;18.92;10.18;;;4.90;99.90;;;;;;5051122;28;20213;-68
2022/01/22 08:14:11;;;;;;;20.30;12.63;;;4.90;99.90;;;;;;5049699;28;20218;-67
2022/01/22 08:16:38;;;;;;;15.50;10.68;;;4.90;99.90;;;;;;5049648;28;20198;-68
2022/01/22 08:19:05;;;;;;;16.08;10.40;;;4.90;99.90;;;;;;5055383;28;20208;-67
2022/01/22 08:21:32;;;;;;;26.40;11.20;;;4.90;99.90;;;;;;5047977;28;20626;-74
2022/01/22 08:24:00;;;;;;;15.75;11.55;;;4.90;99.90;;;;;;5048045;28;20214;-70
2022/01/22 08:26:31;;;;;;;11.27;8.50;;;4.90;99.90;;;;;;5048932;28;20230;-69
2022/01/22 08:29:00;;;;;;;28.92;9.63;;;4.90;99.90;;;;;;5047572;28;20198;-67
2022/01/22 08:31:43;;;;;;;15.68;10.88;;;4.90;99.90;;;;;;5048251;28;20259;-70
2022/01/22 08:36:55;;;;;;;15.68;8.32;;;4.90;99.90;;;;;;5048559;28;20332;-67
2022/01/22 08:39:23;;;;;;;14.70;11.00;;;5.00;99.90;;;;;;5059731;28;20206;-68
2022/01/22 08:41:50;;;;;;;16.38;10.45;;;5.00;99.90;;;;;;5050766;28;20202;-69
2022/01/22 08:44:16;;;;;;;12.93;9.70;;;5.00;99.90;;;;;;5050624;28;20719;-67
2022/01/22 08:46:44;;;;;;;12.45;9.00;;;5.10;99.90;;;;;;5050450;28;20275;-68
2022/01/22 08:49:11;;;;;;;13.57;9.75;;;5.10;99.90;;;;;;5047974;28;20205;-67
2022/01/22 08:51:39;;;;;;;14.10;10.90;;;5.10;99.90;;;;;;5056607;28;20359;-68
2022/01/22 08:54:06;;;;;;;13.57;11.73;;;5.20;99.90;;;;;;5048764;28;20623;-64
2022/01/22 08:56:34;;;;;;;11.65;10.25;;;5.20;99.90;;;;;;5048592;28;20201;-66
2022/01/22 08:59:00;;;;;;;12.35;9.95;;;5.10;99.90;;;;;;5047853;28;20264;-66
2022/01/22 09:01:27;;;;;;;21.15;8.55;;;5.20;99.90;;;;;;5043229;28;20213;-67
2022/01/22 09:03:54;;;;;;;18.17;10.38;;;5.20;99.90;;;;;;5048725;28;20295;-70
2022/01/22 09:06:21;;;;;;;12.05;8.52;;;5.20;99.90;;;;;;5049104;28;20226;-67
2022/01/22 09:08:50;;;;;;;10.80;9.70;;;5.20;99.90;;;;;;5045881;28;20205;-67
2022/01/22 09:11:18;;;;;;;12.80;8.07;;;5.20;99.90;;;;;;5051067;28;21188;-67
2022/01/22 09:13:46;;;;;;;12.15;10.43;;;5.30;99.90;;;;;;5054325;28;20266;-69
2022/01/22 09:16:13;;;;;;;16.10;9.10;;;5.30;99.90;;;;;;5049307;28;20206;-68
2022/01/22 09:18:39;;;;;;;14.68;10.48;;;5.40;99.90;;;;;;5051567;28;20264;-68
2022/01/22 09:21:06;;;;;;;16.85;9.43;;;5.40;99.90;;;;;;5053063;28;20205;-67
2022/01/22 09:23:33;;;;;;;12.25;7.82;;;5.50;99.90;;;;;;5052462;28;20234;-70
2022/01/22 09:26:01;;;;;;;11.82;9.32;;;5.50;99.90;;;;;;5051051;28;20283;-68
2022/01/22 09:28:30;;;;;;;13.32;8.88;;;5.60;99.90;;;;;;5045444;28;20206;-68
2022/01/22 09:30:58;;;;;;;10.68;9.45;;;5.60;99.90;;;;;;5048187;28;20206;-69
2022/01/22 09:33:25;;;;;;;14.15;10.90;;;5.60;99.90;;;;;;5045027;28;20303;-68
2022/01/22 09:35:52;;;;;;;14.23;10.75;;;5.60;99.90;;;;;;5049399;28;20230;-68
2022/01/22 09:38:18;;;;;;;17.33;9.32;;;5.60;99.90;;;;;;5051468;28;20637;-68
2022/01/22 09:40:45;;;;;;;12.80;10.73;;;5.60;99.90;;;;;;5058293;28;20206;-68
2022/01/22 09:43:13;;;;;;;13.65;9.18;;;5.50;99.90;;;;;;5052672;28;20206;-68
2022/01/22 09:45:40;;;;;;;13.30;10.13;;;5.60;99.90;;;;;;5055696;28;20302;-67
2022/01/22 09:48:08;;;;;;;11.75;7.90;;;5.80;99.90;;;;;;5060685;28;20581;-70
2022/01/22 09:50:36;;;;;;;18.90;9.40;;;5.90;99.90;;;;;;5056450;28;20197;-67
2022/01/22 09:53:03;;;;;;;12.35;8.68;;;6.00;99.90;;;;;;5055498;28;20593;-67
2022/01/22 09:55:30;;;;;;;14.50;8.57;;;6.00;99.90;;;;;;5059482;28;20271;-67
2022/01/22 09:57:58;;;;;;;8.32;7.38;;;5.90;99.90;;;;;;5055082;28;20213;-67
2022/01/22 10:00:26;;;;;;;11.40;9.40;;;5.90;99.90;;;;;;5052428;28;20201;-68
2022/01/22 10:02:54;;;;;;;13.57;7.10;;;6.00;99.90;;;;;;5048423;28;20202;-68
2022/01/22 10:05:34;;;;;;;10.40;8.63;;;6.10;99.90;;;;;;5044181;28;20749;-68
2022/01/22 10:08:24;;;;;;;10.60;7.97;;;6.10;99.90;;;;;;5049242;28;20218;-68
2022/01/22 10:10:52;;;;;;;12.75;6.90;;;6.20;99.90;;;;;;5050088;28;20206;-68
2022/01/22 10:13:38;;;;;;;10.93;8.15;;;6.20;99.90;;;;;;5051195;28;20255;-69
2022/01/22 10:16:13;;;;;;;8.50;6.53;;;6.20;99.90;;;;;;5044952;28;20222;-69
2022/01/22 10:18:39;;;;;;;11.68;8.63;;;6.20;99.90;;;;;;5050268;28;20250;-69
2022/01/22 10:21:10;;;;;;;12.50;9.32;;;6.20;99.90;;;;;;5051923;28;20203;-69
2022/01/22 10:23:39;;;;;;;8.10;6.93;;;6.20;99.90;;;;;;5052094;28;20194;-68
2022/01/22 10:26:09;;;;;;;10.07;8.45;;;6.10;99.90;;;;;;5056771;28;20863;-69
2022/01/22 10:28:43;;;;;;;10.45;7.85;;;6.10;99.90;;;;;;5053574;28;20202;-69
2022/01/22 10:31:18;;;;;;;9.07;7.95;;;6.10;99.90;;;;;;5052645;28;20303;-68
2022/01/22 10:33:45;;;;;;;9.23;7.07;;;6.10;99.90;;;;;;5052172;28;20209;-69
2022/01/22 10:36:16;;;;;;;13.45;9.20;;;6.10;99.90;;;;;;5050670;28;20209;-70
2022/01/22 10:38:45;;;;;;;18.40;8.45;;;6.00;99.90;;;;;;5056548;28;20237;-69
2022/01/22 10:41:13;;;;;;;10.60;7.68;;;6.00;99.90;;;;;;5053792;28;20539;-70
2022/01/22 10:43:44;;;;;;;11.30;10.10;;;6.00;99.90;;;;;;5052237;28;20581;-69
2022/01/22 10:46:19;;;;;;;8.50;6.80;;;5.90;99.90;;;;;;5046155;28;20292;-71
2022/01/22 10:48:56;;;;;;;14.07;9.93;;;5.90;99.90;;;;;;5049642;28;20202;-69
2022/01/22 10:51:25;;;;;;;14.73;9.60;;;5.80;99.90;;;;;;5050111;28;20867;-70
2022/01/22 10:53:56;;;;;;;10.13;6.80;;;5.80;99.90;;;;;;5051719;28;20210;-70
2022/01/22 10:56:24;;;;;;;14.02;9.93;;;5.90;99.90;;;;;;5051484;28;20210;-71
2022/01/22 10:58:57;;;;;;;18.02;9.32;;;5.90;99.90;;;;;;5044516;28;20260;-71
2022/01/22 11:01:25;;;;;;;10.20;8.68;;;5.90;99.90;;;;;;5047174;28;20423;-71
2022/01/22 11:04:04;;;;;;;11.43;9.32;;;6.00;99.90;;;;;;5051218;28;20209;-70
2022/01/22 11:06:32;;;;;;;10.02;8.80;;;5.90;99.90;;;;;;5051322;28;20225;-70
2022/01/22 11:08:59;;;;;;;9.40;8.23;;;5.90;99.90;;;;;;5047970;28;20209;-71
2022/01/22 11:11:26;;;;;;;20.30;11.38;;;5.80;99.90;;;;;;5052596;28;20668;-70
2022/01/22 11:13:52;;;;;;;11.23;8.75;;;5.80;99.90;;;;;;5049320;28;20222;-70
2022/01/22 11:16:20;;;;;;;13.57;9.15;;;5.90;99.90;;;;;;5047877;28;20858;-72
2022/01/22 11:18:50;;;;;;;8.50;7.53;;;5.90;99.90;;;;;;5048632;28;20229;-72
2022/01/22 11:21:18;;;;;;;11.80;8.30;;;5.90;99.90;;;;;;5051587;28;20734;-71
2022/01/22 11:23:47;;;;;;;12.18;8.73;;;6.00;99.90;;;;;;5048102;28;20206;-73
2022/01/22 11:26:15;;;;;;;13.93;9.27;;;6.00;99.90;;;;;;5049162;28;20285;-76
2022/01/22 11:28:45;;;;;;;11.90;9.30;;;6.00;99.90;;;;;;5048899;28;20277;-76
2022/01/22 11:31:15;;;;;;;11.85;8.18;;;6.00;99.90;;;;;;5044342;28;20289;-74
2022/01/22 11:33:45;;;;;;;9.60;7.70;;;6.00;99.90;;;;;;5048299;28;20269;-70
2022/01/22 11:36:17;;;;;;;11.90;9.52;;;6.00;99.90;;;;;;5053871;28;20213;-73
2022/01/22 11:38:53;;;;;;;11.77;9.20;;;6.10;99.90;;;;;;5059821;28;20280;-75
2022/01/22 11:41:22;;;;;;;8.80;7.28;;;6.10;99.90;;;;;;5048661;28;20237;-72
2022/01/22 11:44:04;;;;;;;9.77;8.43;;;6.20;99.90;;;;;;5061446;28;20211;-72
2022/01/22 11:46:35;;;;;;;9.68;7.35;;;6.20;99.90;;;;;;5086749;22;20296;-72
2022/01/22 11:49:21;;;;;;;12.00;8.25;;;6.30;99.90;;;;;;5068999;28;20206;-71
2022/01/22 11:51:50;;;;;;;11.93;7.78;;;6.50;99.90;;;;;;5058306;28;20202;-70
2022/01/22 11:54:21;;;;;;;7.80;7.00;;;6.80;99.90;;;;;;5060504;28;20320;-70
2022/01/22 11:56:52;;;;;;;8.70;7.80;;;6.90;99.90;;;;;;5067846;28;20221;-70
2022/01/22 11:59:30;;;;;;;16.05;7.55;;;7.10;99.90;;;;;;5064730;28;20304;-68
2022/01/22 12:02:07;;;;;;;9.93;8.43;;;7.30;99.90;;;;;;5057058;28;20274;-67
2022/01/22 12:05:02;;;;;;;7.40;6.68;;;7.50;99.90;;;;;;5064101;28;20224;-68
2022/01/22 12:07:35;;;;;;;9.95;6.80;;;7.50;99.90;;;;;;5055977;28;20243;-67
2022/01/22 12:10:34;;;;;;;9.48;6.05;;;7.30;99.90;;;;;;5061657;28;20295;-68
2022/01/22 12:16:09;;;;;;;6.80;5.30;;;7.00;99.90;;;;;;5071380;28;20248;-67
2022/01/22 12:18:41;;;;;;;10.05;7.60;;;7.00;99.90;;;;;;5064526;28;20209;-67
2022/01/22 12:23:56;;;;;;;7.78;6.97;;;6.80;99.90;;;;;;5066680;28;20204;-67
2022/01/22 12:26:45;;;;;;;8.05;6.28;;;6.70;99.90;;;;;;5063920;28;20695;-68
2022/01/22 12:29:41;;;;;;;8.05;7.22;;;6.60;99.90;;;;;;5063869;28;21485;-67
2022/01/22 12:32:23;;;;;;;7.80;6.40;;;6.50;99.90;;;;;;5060507;28;20209;-67
2022/01/22 12:35:09;;;;;;;7.22;6.43;;;6.50;99.90;;;;;;5064068;28;20280;-68
2022/01/22 12:38:01;;;;;;;12.70;7.90;;;6.30;99.90;;;;;;5070993;28;20211;-67
2022/01/22 12:40:33;;;;;;;11.70;7.88;;;6.30;99.90;;;;;;5056018;28;20267;-67
2022/01/22 12:43:14;;;;;;;8.35;7.28;;;6.30;99.90;;;;;;5062167;28;20297;-67
2022/01/22 12:45:44;;;;;;;8.82;6.00;;;6.20;99.90;;;;;;5067676;28;20326;-68
2022/01/22 12:48:13;;;;;;;10.23;7.30;;;6.20;99.90;;;;;;5066869;28;20217;-67
2022/01/22 12:50:40;;;;;;;12.10;7.60;;;6.30;99.90;;;;;;5067503;28;20288;-67
2022/01/22 12:53:18;;;;;;;8.95;7.07;;;6.20;99.90;;;;;;5062811;28;20209;-67
2022/01/22 12:58:39;;;;;;;10.43;9.35;;;6.30;99.90;;;;;;5063248;28;20279;-68
2022/01/22 13:01:19;;;;;;;7.65;6.90;;;6.40;99.90;;;;;;5064107;28;20205;-67
2022/01/22 13:03:48;;;;;;;9.52;7.50;;;6.40;99.90;;;;;;5060671;28;20337;-67
2022/01/22 13:06:15;;;;;;;9.95;7.35;;;6.40;99.90;;;;;;5065996;28;20221;-66
2022/01/22 13:08:42;;;;;;;7.47;4.95;;;6.40;99.90;;;;;;5058950;28;20224;-65
2022/01/22 13:11:13;;;;;;;9.45;6.28;;;6.50;99.90;;;;;;5080497;28;20270;-66
2022/01/22 13:13:46;;;;;;;7.35;6.55;;;6.60;99.90;;;;;;5059361;28;20296;-66
2022/01/22 13:16:16;;;;;;;10.48;6.30;;;6.60;99.90;;;;;;5072329;28;20282;-67
2022/01/22 13:18:46;;;;;;;11.65;8.25;;;6.60;99.90;;;;;;5068182;28;20197;-67
2022/01/22 13:21:14;;;;;;;11.07;7.78;;;6.60;99.90;;;;;;5069269;28;20250;-67
2022/01/22 13:23:41;;;;;;;7.55;6.75;;;6.60;99.90;;;;;;5070376;28;20738;-66
2022/01/22 13:26:09;;;;;;;14.10;6.28;;;6.60;99.90;;;;;;5078627;28;20308;-67
2022/01/22 13:28:38;;;;;;;10.48;7.95;;;6.60;99.90;;;;;;5064974;28;20229;-67
2022/01/22 13:31:15;;;;;;;9.52;6.50;;;6.60;99.90;;;;;;5069082;28;20207;-66
2022/01/22 13:33:50;;;;;;;10.38;7.68;;;6.60;99.90;;;;;;5060869;28;20582;-67
2022/01/22 13:36:24;;;;;;;12.05;7.00;;;6.60;99.90;;;;;;5060384;28;20377;-65
2022/01/22 13:39:18;;;;;;;10.65;5.97;;;6.60;99.90;;;;;;5067329;28;20475;-66
2022/01/22 13:47:46;;;;;;;9.85;6.40;;;6.60;99.90;;;;;;5070515;28;20298;-68
2022/01/22 13:50:14;;;;;;;8.85;6.47;;;6.60;99.90;;;;;;5066964;28;20209;-66
2022/01/22 13:52:41;;;;;;;18.02;9.20;;;6.60;99.90;;;;;;5066703;28;20197;-68
2022/01/22 13:55:08;;;;;;;8.55;7.72;;;6.60;99.90;;;;;;5069455;28;20286;-65
2022/01/22 13:57:36;;;;;;;12.07;8.30;;;6.60;99.90;;;;;;5065821;28;20254;-66
2022/01/22 14:00:10;;;;;;;9.50;7.38;;;6.60;99.90;;;;;;5062902;28;20351;-65
2022/01/22 14:03:06;;;;;;;12.55;8.98;;;6.50;99.90;;;;;;5062578;28;20193;-64
2022/01/22 14:05:33;;;;;;;9.27;7.43;;;6.50;99.90;;;;;;5068115;28;20244;-66
2022/01/22 14:08:02;;;;;;;11.07;7.57;;;6.50;99.90;;;;;;5058253;28;20225;-66
2022/01/22 14:10:29;;;;;;;11.30;7.05;;;6.50;99.90;;;;;;5056385;28;20213;-66
2022/01/22 14:13:00;;;;;;;6.43;5.65;;;6.40;99.90;;;;;;5068508;28;20216;-65
2022/01/22 14:15:32;;;;;;;8.10;7.30;;;6.40;99.90;;;;;;5058182;28;20699;-68